sensor_id;sensor_type;location;lat;lon;timestamp;P1;durP1;ratioP1;P2;durP2;ratioP2
11187;SDS011;5650;52.700;7.306;2023-02-28T00:01:29;5.97;;;2.60;;
11187;SDS011;5650;52.700;7.306;2023-02-28T00:04:02;6.50;;;2.85;;
11187;SDS011;5650;52.700;7.306;2023-02-28T00:06:33;4.13;;;2.65;;
11187;SDS011;5650;52.700;7.306;2023-02-28T00:09:00;8.48;;;3.13;;
11187;SDS011;5650;52.700;7.306;2023-02-28T00:11:30;5.47;;;2.67;;
11187;SDS011;5650;52.700;7.306;2023-02-28T00:13:57;5.30;;;3.10;;
11187;SDS011;5650;52.700;7.306;2023-02-28T00:16:31;15.40;;;5.65;;
11187;SDS011;5650;52.700;7.306;2023-02-28T00:19:02;7.18;;;3.63;;
11187;SDS011;5650;52.700;7.306;2023-02-28T00:21:36;6.22;;;3.20;;
11187;SDS011;5650;52.700;7.306;2023-02-28T00:24:05;8.07;;;3.10;;
11187;SDS011;5650;52.700;7.306;2023-02-28T00:26:33;7.00;;;2.95;;
11187;SDS011;5650;52.700;7.306;2023-02-28T00:29:00;6.60;;;3.00;;
11187;SDS011;5650;52.700;7.306;2023-02-28T00:31:28;5.90;;;2.42;;
11187;SDS011;5650;52.700;7.306;2023-02-28T00:33:55;8.38;;;2.80;;
11187;SDS011;5650;52.700;7.306;2023-02-28T00:36:26;10.10;;;5.70;;
11187;SDS011;5650;52.700;7.306;2023-02-28T00:38:56;16.85;;;7.93;;
11187;SDS011;5650;52.700;7.306;2023-02-28T00:41:26;34.53;;;17.55;;
11187;SDS011;5650;52.700;7.306;2023-02-28T00:43:53;54.40;;;27.98;;
11187;SDS011;5650;52.700;7.306;2023-02-28T00:46:23;62.17;;;30.35;;
11187;SDS011;5650;52.700;7.306;2023-02-28T00:48:56;60.45;;;28.92;;
11187;SDS011;5650;52.700;7.306;2023-02-28T00:51:28;39.78;;;19.48;;
11187;SDS011;5650;52.700;7.306;2023-02-28T00:53:57;20.08;;;10.45;;
11187;SDS011;5650;52.700;7.306;2023-02-28T00:56:24;29.38;;;14.43;;
11187;SDS011;5650;52.700;7.306;2023-02-28T00:58:55;19.20;;;10.80;;
11187;SDS011;5650;52.700;7.306;2023-02-28T01:01:22;11.40;;;6.30;;
11187;SDS011;5650;52.700;7.306;2023-02-28T01:03:49;15.48;;;6.22;;
11187;SDS011;5650;52.700;7.306;2023-02-28T01:06:16;10.35;;;5.32;;
11187;SDS011;5650;52.700;7.306;2023-02-28T01:08:43;10.55;;;5.10;;
11187;SDS011;5650;52.700;7.306;2023-02-28T01:11:13;8.45;;;4.25;;
11187;SDS011;5650;52.700;7.306;2023-02-28T01:13:43;6.88;;;3.70;;
11187;SDS011;5650;52.700;7.306;2023-02-28T01:16:12;7.30;;;3.65;;
11187;SDS011;5650;52.700;7.306;2023-02-28T01:18:40;5.95;;;3.20;;
11187;SDS011;5650;52.700;7.306;2023-02-28T01:21:08;4.72;;;3.30;;
11187;SDS011;5650;52.700;7.306;2023-02-28T01:23:37;5.50;;;3.10;;
11187;SDS011;5650;52.700;7.306;2023-02-28T01:26:05;7.78;;;3.22;;
11187;SDS011;5650;52.700;7.306;2023-02-28T01:28:34;5.80;;;3.05;;
11187;SDS011;5650;52.700;7.306;2023-02-28T01:31:01;8.60;;;3.30;;
11187;SDS011;5650;52.700;7.306;2023-02-28T01:33:29;4.68;;;2.78;;
11187;SDS011;5650;52.700;7.306;2023-02-28T01:35:59;4.13;;;2.55;;
11187;SDS011;5650;52.700;7.306;2023-02-28T01:38:30;7.53;;;3.17;;
11187;SDS011;5650;52.700;7.306;2023-02-28T01:41:06;3.63;;;2.42;;
11187;SDS011;5650;52.700;7.306;2023-02-28T01:46:29;6.28;;;2.92;;
11187;SDS011;5650;52.700;7.306;2023-02-28T01:48:59;5.95;;;2.80;;
11187;SDS011;5650;52.700;7.306;2023-02-28T01:51:32;4.65;;;2.78;;
11187;SDS011;5650;52.700;7.306;2023-02-28T01:54:02;7.20;;;3.70;;
11187;SDS011;5650;52.700;7.306;2023-02-28T01:56:39;5.70;;;3.38;;
11187;SDS011;5650;52.700;7.306;2023-02-28T01:59:19;5.50;;;3.67;;
11187;SDS011;5650;52.700;7.306;2023-02-28T02:01:51;6.30;;;3.42;;
11187;SDS011;5650;52.700;7.306;2023-02-28T02:04:19;9.32;;;3.83;;
11187;SDS011;5650;52.700;7.306;2023-02-28T02:06:48;10.13;;;3.80;;
11187;SDS011;5650;52.700;7.306;2023-02-28T02:09:15;5.85;;;3.63;;
11187;SDS011;5650;52.700;7.306;2023-02-28T02:11:43;6.72;;;3.70;;
11187;SDS011;5650;52.700;7.306;2023-02-28T02:14:34;8.23;;;3.72;;
11187;SDS011;5650;52.700;7.306;2023-02-28T02:17:14;5.93;;;3.58;;
11187;SDS011;5650;52.700;7.306;2023-02-28T02:23:18;6.63;;;3.00;;
11187;SDS011;5650;52.700;7.306;2023-02-28T02:26:13;6.30;;;3.08;;
11187;SDS011;5650;52.700;7.306;2023-02-28T02:29:10;6.28;;;3.15;;
11187;SDS011;5650;52.700;7.306;2023-02-28T02:35:01;5.53;;;3.15;;
11187;SDS011;5650;52.700;7.306;2023-02-28T02:37:39;4.68;;;3.20;;
11187;SDS011;5650;52.700;7.306;2023-02-28T02:40:11;8.05;;;3.55;;
11187;SDS011;5650;52.700;7.306;2023-02-28T02:42:44;7.75;;;3.90;;
11187;SDS011;5650;52.700;7.306;2023-02-28T02:45:16;8.18;;;3.55;;
11187;SDS011;5650;52.700;7.306;2023-02-28T02:47:48;6.57;;;4.10;;
11187;SDS011;5650;52.700;7.306;2023-02-28T02:50:22;7.30;;;3.97;;
11187;SDS011;5650;52.700;7.306;2023-02-28T02:53:00;6.70;;;4.18;;
11187;SDS011;5650;52.700;7.306;2023-02-28T02:55:29;7.93;;;4.22;;
11187;SDS011;5650;52.700;7.306;2023-02-28T02:58:01;7.43;;;4.55;;
11187;SDS011;5650;52.700;7.306;2023-02-28T03:00:31;7.63;;;4.40;;
11187;SDS011;5650;52.700;7.306;2023-02-28T03:03:04;9.55;;;4.00;;
11187;SDS011;5650;52.700;7.306;2023-02-28T03:05:39;7.05;;;3.78;;
11187;SDS011;5650;52.700;7.306;2023-02-28T03:08:11;6.18;;;3.85;;
11187;SDS011;5650;52.700;7.306;2023-02-28T03:10:41;4.30;;;3.22;;
11187;SDS011;5650;52.700;7.306;2023-02-28T03:19:16;10.07;;;4.18;;
11187;SDS011;5650;52.700;7.306;2023-02-28T03:21:56;8.27;;;4.00;;
11187;SDS011;5650;52.700;7.306;2023-02-28T03:24:39;9.60;;;3.75;;
11187;SDS011;5650;52.700;7.306;2023-02-28T03:27:14;9.02;;;4.20;;
11187;SDS011;5650;52.700;7.306;2023-02-28T03:29:48;7.72;;;3.80;;
11187;SDS011;5650;52.700;7.306;2023-02-28T03:32:32;6.20;;;3.65;;
11187;SDS011;5650;52.700;7.306;2023-02-28T03:35:05;7.78;;;4.70;;
11187;SDS011;5650;52.700;7.306;2023-02-28T03:37:40;8.90;;;4.90;;
11187;SDS011;5650;52.700;7.306;2023-02-28T03:40:10;7.85;;;4.07;;
11187;SDS011;5650;52.700;7.306;2023-02-28T03:42:49;6.68;;;4.03;;
11187;SDS011;5650;52.700;7.306;2023-02-28T03:45:22;7.22;;;4.10;;
11187;SDS011;5650;52.700;7.306;2023-02-28T03:47:59;7.70;;;4.22;;
11187;SDS011;5650;52.700;7.306;2023-02-28T03:50:33;8.38;;;4.47;;
11187;SDS011;5650;52.700;7.306;2023-02-28T03:53:06;6.60;;;4.18;;
11187;SDS011;5650;52.700;7.306;2023-02-28T03:55:46;7.45;;;4.45;;
11187;SDS011;5650;52.700;7.306;2023-02-28T03:58:20;6.15;;;3.75;;
11187;SDS011;5650;52.700;7.306;2023-02-28T04:01:00;8.43;;;4.05;;
11187;SDS011;5650;52.700;7.306;2023-02-28T04:03:36;6.05;;;4.40;;
11187;SDS011;5650;52.700;7.306;2023-02-28T04:06:05;7.95;;;4.13;;
11187;SDS011;5650;52.700;7.306;2023-02-28T04:08:40;6.18;;;4.20;;
11187;SDS011;5650;52.700;7.306;2023-02-28T04:11:16;6.90;;;3.95;;
11187;SDS011;5650;52.700;7.306;2023-02-28T04:13:49;6.03;;;4.18;;
11187;SDS011;5650;52.700;7.306;2023-02-28T04:16:17;10.65;;;6.50;;
11187;SDS011;5650;52.700;7.306;2023-02-28T04:18:44;12.48;;;6.55;;
11187;SDS011;5650;52.700;7.306;2023-02-28T04:21:11;9.95;;;6.70;;
11187;SDS011;5650;52.700;7.306;2023-02-28T04:23:43;20.13;;;10.82;;
11187;SDS011;5650;52.700;7.306;2023-02-28T04:26:10;16.27;;;9.05;;
11187;SDS011;5650;52.700;7.306;2023-02-28T04:28:37;16.63;;;9.63;;
11187;SDS011;5650;52.700;7.306;2023-02-28T04:31:05;12.82;;;8.95;;
11187;SDS011;5650;52.700;7.306;2023-02-28T04:33:38;8.32;;;5.75;;
11187;SDS011;5650;52.700;7.306;2023-02-28T04:36:07;13.98;;;9.02;;
11187;SDS011;5650;52.700;7.306;2023-02-28T04:38:35;12.73;;;7.25;;
11187;SDS011;5650;52.700;7.306;2023-02-28T04:41:07;7.32;;;4.35;;
11187;SDS011;5650;52.700;7.306;2023-02-28T04:43:35;11.82;;;7.38;;
11187;SDS011;5650;52.700;7.306;2023-02-28T04:46:03;7.85;;;4.50;;
11187;SDS011;5650;52.700;7.306;2023-02-28T04:48:34;10.00;;;3.88;;
11187;SDS011;5650;52.700;7.306;2023-02-28T04:51:07;8.93;;;3.63;;
11187;SDS011;5650;52.700;7.306;2023-02-28T04:53:36;7.57;;;3.78;;
11187;SDS011;5650;52.700;7.306;2023-02-28T04:56:05;6.40;;;4.22;;
11187;SDS011;5650;52.700;7.306;2023-02-28T04:58:34;6.10;;;3.90;;
11187;SDS011;5650;52.700;7.306;2023-02-28T05:01:02;8.27;;;3.95;;
11187;SDS011;5650;52.700;7.306;2023-02-28T05:03:47;6.47;;;4.45;;
11187;SDS011;5650;52.700;7.306;2023-02-28T05:06:14;5.07;;;4.05;;
11187;SDS011;5650;52.700;7.306;2023-02-28T05:08:42;8.23;;;4.00;;
11187;SDS011;5650;52.700;7.306;2023-02-28T05:11:13;5.93;;;3.67;;
11187;SDS011;5650;52.700;7.306;2023-02-28T05:13:47;7.68;;;4.85;;
11187;SDS011;5650;52.700;7.306;2023-02-28T05:16:15;7.03;;;4.35;;
11187;SDS011;5650;52.700;7.306;2023-02-28T05:18:45;5.82;;;3.67;;
11187;SDS011;5650;52.700;7.306;2023-02-28T05:21:21;5.82;;;4.25;;
11187;SDS011;5650;52.700;7.306;2023-02-28T05:23:53;14.10;;;4.03;;
11187;SDS011;5650;52.700;7.306;2023-02-28T05:26:21;10.60;;;4.10;;
11187;SDS011;5650;52.700;7.306;2023-02-28T05:28:50;7.80;;;4.40;;
11187;SDS011;5650;52.700;7.306;2023-02-28T05:31:17;9.25;;;4.47;;
11187;SDS011;5650;52.700;7.306;2023-02-28T05:33:44;10.55;;;4.15;;
11187;SDS011;5650;52.700;7.306;2023-02-28T05:36:12;6.38;;;4.10;;
11187;SDS011;5650;52.700;7.306;2023-02-28T05:38:39;8.00;;;4.63;;
11187;SDS011;5650;52.700;7.306;2023-02-28T05:41:07;7.55;;;4.43;;
11187;SDS011;5650;52.700;7.306;2023-02-28T05:43:35;6.32;;;3.80;;
11187;SDS011;5650;52.700;7.306;2023-02-28T05:46:05;5.78;;;4.07;;
11187;SDS011;5650;52.700;7.306;2023-02-28T05:48:33;7.22;;;4.20;;
11187;SDS011;5650;52.700;7.306;2023-02-28T05:51:01;9.10;;;3.88;;
11187;SDS011;5650;52.700;7.306;2023-02-28T05:53:29;7.45;;;4.18;;
11187;SDS011;5650;52.700;7.306;2023-02-28T05:55:57;8.45;;;4.32;;
11187;SDS011;5650;52.700;7.306;2023-02-28T05:58:25;11.90;;;8.70;;
11187;SDS011;5650;52.700;7.306;2023-02-28T06:00:55;15.82;;;8.00;;
11187;SDS011;5650;52.700;7.306;2023-02-28T06:03:24;9.05;;;5.85;;
11187;SDS011;5650;52.700;7.306;2023-02-28T06:05:52;9.38;;;5.15;;
11187;SDS011;5650;52.700;7.306;2023-02-28T06:08:19;7.65;;;5.30;;
11187;SDS011;5650;52.700;7.306;2023-02-28T06:10:47;8.27;;;5.25;;
11187;SDS011;5650;52.700;7.306;2023-02-28T06:13:14;12.95;;;5.03;;
11187;SDS011;5650;52.700;7.306;2023-02-28T06:15:41;9.45;;;5.47;;
11187;SDS011;5650;52.700;7.306;2023-02-28T06:18:08;9.57;;;4.88;;
11187;SDS011;5650;52.700;7.306;2023-02-28T06:20:43;7.40;;;4.70;;
11187;SDS011;5650;52.700;7.306;2023-02-28T06:23:10;60.42;;;32.65;;
11187;SDS011;5650;52.700;7.306;2023-02-28T06:25:37;14.38;;;8.13;;
11187;SDS011;5650;52.700;7.306;2023-02-28T06:28:10;11.10;;;6.18;;
11187;SDS011;5650;52.700;7.306;2023-02-28T06:30:43;8.35;;;5.68;;
11187;SDS011;5650;52.700;7.306;2023-02-28T06:33:10;9.57;;;5.45;;
11187;SDS011;5650;52.700;7.306;2023-02-28T06:35:38;8.77;;;4.93;;
11187;SDS011;5650;52.700;7.306;2023-02-28T06:38:16;8.13;;;5.53;;
11187;SDS011;5650;52.700;7.306;2023-02-28T06:40:44;8.73;;;4.55;;
11187;SDS011;5650;52.700;7.306;2023-02-28T06:43:18;9.48;;;4.70;;
11187;SDS011;5650;52.700;7.306;2023-02-28T06:45:48;5.60;;;4.93;;
11187;SDS011;5650;52.700;7.306;2023-02-28T06:48:22;7.75;;;4.88;;
11187;SDS011;5650;52.700;7.306;2023-02-28T06:51:05;6.10;;;4.90;;
11187;SDS011;5650;52.700;7.306;2023-02-28T06:53:34;11.65;;;6.22;;
11187;SDS011;5650;52.700;7.306;2023-02-28T06:56:03;11.38;;;5.82;;
11187;SDS011;5650;52.700;7.306;2023-02-28T06:58:31;7.32;;;5.43;;
11187;SDS011;5650;52.700;7.306;2023-02-28T07:00:59;14.50;;;6.65;;
11187;SDS011;5650;52.700;7.306;2023-02-28T07:03:29;10.15;;;5.45;;
11187;SDS011;5650;52.700;7.306;2023-02-28T07:06:00;9.38;;;6.00;;
11187;SDS011;5650;52.700;7.306;2023-02-28T07:08:33;8.68;;;5.30;;
11187;SDS011;5650;52.700;7.306;2023-02-28T07:11:01;10.85;;;6.18;;
11187;SDS011;5650;52.700;7.306;2023-02-28T07:13:30;8.25;;;5.53;;
11187;SDS011;5650;52.700;7.306;2023-02-28T07:15:57;8.07;;;5.10;;
11187;SDS011;5650;52.700;7.306;2023-02-28T07:18:26;13.07;;;6.15;;
11187;SDS011;5650;52.700;7.306;2023-02-28T07:20:53;8.57;;;6.60;;
11187;SDS011;5650;52.700;7.306;2023-02-28T07:23:28;9.70;;;6.22;;
11187;SDS011;5650;52.700;7.306;2023-02-28T07:25:57;7.90;;;5.95;;
11187;SDS011;5650;52.700;7.306;2023-02-28T07:28:24;15.43;;;5.93;;
11187;SDS011;5650;52.700;7.306;2023-02-28T07:30:52;9.63;;;4.95;;
11187;SDS011;5650;52.700;7.306;2023-02-28T07:33:19;9.25;;;5.22;;
11187;SDS011;5650;52.700;7.306;2023-02-28T07:35:46;6.80;;;5.53;;
11187;SDS011;5650;52.700;7.306;2023-02-28T07:38:14;9.43;;;5.38;;
11187;SDS011;5650;52.700;7.306;2023-02-28T07:40:44;9.68;;;5.20;;
11187;SDS011;5650;52.700;7.306;2023-02-28T07:43:13;5.95;;;4.90;;
11187;SDS011;5650;52.700;7.306;2023-02-28T07:45:43;8.85;;;4.95;;
11187;SDS011;5650;52.700;7.306;2023-02-28T07:48:10;6.25;;;4.38;;
11187;SDS011;5650;52.700;7.306;2023-02-28T07:50:38;7.50;;;4.50;;
11187;SDS011;5650;52.700;7.306;2023-02-28T07:53:05;10.80;;;4.90;;
11187;SDS011;5650;52.700;7.306;2023-02-28T07:55:35;9.85;;;4.70;;
11187;SDS011;5650;52.700;7.306;2023-02-28T07:58:05;7.00;;;4.85;;
11187;SDS011;5650;52.700;7.306;2023-02-28T08:00:34;9.02;;;6.35;;
11187;SDS011;5650;52.700;7.306;2023-02-28T08:03:01;9.68;;;5.47;;
11187;SDS011;5650;52.700;7.306;2023-02-28T08:05:31;9.77;;;5.28;;
11187;SDS011;5650;52.700;7.306;2023-02-28T08:08:05;6.82;;;4.32;;
11187;SDS011;5650;52.700;7.306;2023-02-28T08:10:32;8.80;;;4.43;;
11187;SDS011;5650;52.700;7.306;2023-02-28T08:13:00;8.00;;;4.38;;
11187;SDS011;5650;52.700;7.306;2023-02-28T08:15:27;6.97;;;3.83;;
11187;SDS011;5650;52.700;7.306;2023-02-28T08:17:56;11.02;;;4.60;;
11187;SDS011;5650;52.700;7.306;2023-02-28T08:20:23;5.97;;;3.67;;
11187;SDS011;5650;52.700;7.306;2023-02-28T08:22:51;6.53;;;4.15;;
11187;SDS011;5650;52.700;7.306;2023-02-28T08:25:18;5.40;;;3.88;;
11187;SDS011;5650;52.700;7.306;2023-02-28T08:27:46;6.15;;;3.92;;
11187;SDS011;5650;52.700;7.306;2023-02-28T08:30:16;8.65;;;3.78;;
11187;SDS011;5650;52.700;7.306;2023-02-28T08:32:43;4.88;;;3.22;;
11187;SDS011;5650;52.700;7.306;2023-02-28T08:35:14;6.63;;;3.13;;
11187;SDS011;5650;52.700;7.306;2023-02-28T08:37:47;5.15;;;3.22;;
11187;SDS011;5650;52.700;7.306;2023-02-28T08:40:15;7.60;;;3.20;;
11187;SDS011;5650;52.700;7.306;2023-02-28T08:42:43;8.25;;;2.88;;
11187;SDS011;5650;52.700;7.306;2023-02-28T08:45:11;5.15;;;2.50;;
11187;SDS011;5650;52.700;7.306;2023-02-28T08:47:38;3.80;;;2.55;;
11187;SDS011;5650;52.700;7.306;2023-02-28T08:50:13;3.58;;;2.22;;
11187;SDS011;5650;52.700;7.306;2023-02-28T08:52:41;4.38;;;2.45;;
11187;SDS011;5650;52.700;7.306;2023-02-28T08:55:09;4.32;;;2.33;;
11187;SDS011;5650;52.700;7.306;2023-02-28T08:57:36;4.75;;;2.38;;
11187;SDS011;5650;52.700;7.306;2023-02-28T09:00:10;3.78;;;2.72;;
11187;SDS011;5650;52.700;7.306;2023-02-28T09:02:38;3.97;;;2.67;;
11187;SDS011;5650;52.700;7.306;2023-02-28T09:05:08;3.55;;;2.72;;
11187;SDS011;5650;52.700;7.306;2023-02-28T09:07:39;4.10;;;2.30;;
11187;SDS011;5650;52.700;7.306;2023-02-28T09:10:06;6.32;;;3.13;;
11187;SDS011;5650;52.700;7.306;2023-02-28T09:12:34;4.30;;;2.67;;
11187;SDS011;5650;52.700;7.306;2023-02-28T09:15:05;4.85;;;2.15;;
11187;SDS011;5650;52.700;7.306;2023-02-28T09:17:35;2.88;;;1.70;;
11187;SDS011;5650;52.700;7.306;2023-02-28T09:20:06;5.03;;;2.30;;
11187;SDS011;5650;52.700;7.306;2023-02-28T09:22:42;3.90;;;1.90;;
11187;SDS011;5650;52.700;7.306;2023-02-28T09:25:09;2.30;;;1.40;;
11187;SDS011;5650;52.700;7.306;2023-02-28T09:27:41;3.47;;;1.67;;
11187;SDS011;5650;52.700;7.306;2023-02-28T09:30:08;3.72;;;1.95;;
11187;SDS011;5650;52.700;7.306;2023-02-28T09:32:36;2.42;;;1.50;;
11187;SDS011;5650;52.700;7.306;2023-02-28T09:35:04;3.05;;;1.67;;
11187;SDS011;5650;52.700;7.306;2023-02-28T09:37:32;1.83;;;1.40;;
11187;SDS011;5650;52.700;7.306;2023-02-28T09:40:00;2.15;;;1.50;;
11187;SDS011;5650;52.700;7.306;2023-02-28T09:42:31;3.92;;;1.33;;
11187;SDS011;5650;52.700;7.306;2023-02-28T09:45:05;1.75;;;1.15;;
11187;SDS011;5650;52.700;7.306;2023-02-28T09:47:40;1.67;;;1.20;;
11187;SDS011;5650;52.700;7.306;2023-02-28T09:50:17;2.35;;;1.52;;
11187;SDS011;5650;52.700;7.306;2023-02-28T09:52:55;2.42;;;1.42;;
11187;SDS011;5650;52.700;7.306;2023-02-28T09:55:25;1.90;;;1.48;;
11187;SDS011;5650;52.700;7.306;2023-02-28T09:58:00;3.72;;;1.80;;
11187;SDS011;5650;52.700;7.306;2023-02-28T10:00:29;2.90;;;1.70;;
11187;SDS011;5650;52.700;7.306;2023-02-28T10:03:03;1.73;;;1.33;;
11187;SDS011;5650;52.700;7.306;2023-02-28T10:05:43;3.92;;;1.88;;
11187;SDS011;5650;52.700;7.306;2023-02-28T10:08:18;5.65;;;1.98;;
11187;SDS011;5650;52.700;7.306;2023-02-28T10:10:52;2.60;;;1.45;;
11187;SDS011;5650;52.700;7.306;2023-02-28T10:13:31;3.08;;;1.75;;
11187;SDS011;5650;52.700;7.306;2023-02-28T10:16:05;2.92;;;1.40;;
11187;SDS011;5650;52.700;7.306;2023-02-28T10:18:39;3.85;;;1.42;;
11187;SDS011;5650;52.700;7.306;2023-02-28T10:21:13;2.55;;;1.70;;
11187;SDS011;5650;52.700;7.306;2023-02-28T10:23:46;3.10;;;1.60;;
11187;SDS011;5650;52.700;7.306;2023-02-28T10:26:17;2.67;;;1.65;;
11187;SDS011;5650;52.700;7.306;2023-02-28T10:28:48;2.78;;;1.80;;
11187;SDS011;5650;52.700;7.306;2023-02-28T10:31:18;3.67;;;1.50;;
11187;SDS011;5650;52.700;7.306;2023-02-28T10:33:46;2.10;;;1.30;;
11187;SDS011;5650;52.700;7.306;2023-02-28T10:36:15;2.05;;;1.30;;
11187;SDS011;5650;52.700;7.306;2023-02-28T10:38:44;3.83;;;1.30;;
11187;SDS011;5650;52.700;7.306;2023-02-28T10:41:13;2.70;;;1.45;;
11187;SDS011;5650;52.700;7.306;2023-02-28T10:43:50;2.83;;;1.63;;
11187;SDS011;5650;52.700;7.306;2023-02-28T10:46:20;3.17;;;1.55;;
11187;SDS011;5650;52.700;7.306;2023-02-28T10:49:01;1.80;;;1.25;;
11187;SDS011;5650;52.700;7.306;2023-02-28T10:51:35;5.88;;;1.50;;
11187;SDS011;5650;52.700;7.306;2023-02-28T10:54:04;3.55;;;1.52;;
11187;SDS011;5650;52.700;7.306;2023-02-28T10:56:41;2.92;;;1.30;;
11187;SDS011;5650;52.700;7.306;2023-02-28T11:01:56;3.80;;;1.45;;
11187;SDS011;5650;52.700;7.306;2023-02-28T11:04:33;2.38;;;1.50;;
11187;SDS011;5650;52.700;7.306;2023-02-28T11:07:05;2.78;;;1.60;;
11187;SDS011;5650;52.700;7.306;2023-02-28T11:09:46;1.98;;;1.63;;
11187;SDS011;5650;52.700;7.306;2023-02-28T11:12:20;3.58;;;1.58;;
11187;SDS011;5650;52.700;7.306;2023-02-28T11:14:52;2.40;;;1.38;;
11187;SDS011;5650;52.700;7.306;2023-02-28T11:17:30;2.38;;;1.50;;
11187;SDS011;5650;52.700;7.306;2023-02-28T11:19:59;2.83;;;1.58;;
11187;SDS011;5650;52.700;7.306;2023-02-28T11:22:32;2.63;;;1.70;;
11187;SDS011;5650;52.700;7.306;2023-02-28T11:25:07;3.30;;;1.30;;
11187;SDS011;5650;52.700;7.306;2023-02-28T11:27:44;2.65;;;1.40;;
11187;SDS011;5650;52.700;7.306;2023-02-28T11:30:33;3.42;;;1.77;;
11187;SDS011;5650;52.700;7.306;2023-02-28T11:33:13;2.55;;;1.60;;
11187;SDS011;5650;52.700;7.306;2023-02-28T11:35:49;2.20;;;1.77;;
11187;SDS011;5650;52.700;7.306;2023-02-28T11:38:18;2.05;;;1.48;;
11187;SDS011;5650;52.700;7.306;2023-02-28T11:40:50;1.90;;;1.58;;
11187;SDS011;5650;52.700;7.306;2023-02-28T11:43:34;2.28;;;1.52;;
11187;SDS011;5650;52.700;7.306;2023-02-28T11:46:17;3.88;;;1.80;;
11187;SDS011;5650;52.700;7.306;2023-02-28T11:48:54;3.17;;;1.80;;
11187;SDS011;5650;52.700;7.306;2023-02-28T11:51:30;2.83;;;1.40;;
11187;SDS011;5650;52.700;7.306;2023-02-28T11:56:51;2.58;;;1.60;;
11187;SDS011;5650;52.700;7.306;2023-02-28T11:59:30;3.60;;;2.13;;
11187;SDS011;5650;52.700;7.306;2023-02-28T12:02:17;4.80;;;2.25;;
11187;SDS011;5650;52.700;7.306;2023-02-28T12:04:58;3.22;;;2.00;;
11187;SDS011;5650;52.700;7.306;2023-02-28T12:07:37;3.67;;;2.00;;
11187;SDS011;5650;52.700;7.306;2023-02-28T12:10:15;3.50;;;1.88;;
11187;SDS011;5650;52.700;7.306;2023-02-28T12:12:51;2.75;;;1.70;;
11187;SDS011;5650;52.700;7.306;2023-02-28T12:18:41;3.15;;;1.80;;
11187;SDS011;5650;52.700;7.306;2023-02-28T12:21:28;2.38;;;1.70;;
11187;SDS011;5650;52.700;7.306;2023-02-28T12:24:10;3.10;;;1.63;;
11187;SDS011;5650;52.700;7.306;2023-02-28T12:26:56;3.63;;;1.70;;
11187;SDS011;5650;52.700;7.306;2023-02-28T12:29:28;2.20;;;1.50;;
11187;SDS011;5650;52.700;7.306;2023-02-28T12:31:59;2.75;;;1.80;;
11187;SDS011;5650;52.700;7.306;2023-02-28T12:34:33;3.10;;;1.80;;
11187;SDS011;5650;52.700;7.306;2023-02-28T12:37:04;3.25;;;1.60;;
11187;SDS011;5650;52.700;7.306;2023-02-28T12:39:36;1.85;;;1.50;;
11187;SDS011;5650;52.700;7.306;2023-02-28T12:42:09;2.20;;;1.40;;
11187;SDS011;5650;52.700;7.306;2023-02-28T12:44:40;5.22;;;1.70;;
11187;SDS011;5650;52.700;7.306;2023-02-28T12:47:16;2.50;;;1.60;;
11187;SDS011;5650;52.700;7.306;2023-02-28T12:49:46;2.90;;;2.30;;
11187;SDS011;5650;52.700;7.306;2023-02-28T12:52:20;3.38;;;1.70;;
11187;SDS011;5650;52.700;7.306;2023-02-28T12:55:03;3.28;;;2.10;;
11187;SDS011;5650;52.700;7.306;2023-02-28T12:57:36;2.33;;;1.67;;
11187;SDS011;5650;52.700;7.306;2023-02-28T13:00:11;2.92;;;1.92;;
11187;SDS011;5650;52.700;7.306;2023-02-28T13:08:56;2.88;;;1.70;;
11187;SDS011;5650;52.700;7.306;2023-02-28T13:11:30;2.85;;;1.85;;
11187;SDS011;5650;52.700;7.306;2023-02-28T13:13:59;4.22;;;1.77;;
11187;SDS011;5650;52.700;7.306;2023-02-28T13:16:44;3.50;;;1.98;;
11187;SDS011;5650;52.700;7.306;2023-02-28T13:19:19;2.47;;;1.90;;
11187;SDS011;5650;52.700;7.306;2023-02-28T13:21:49;4.22;;;1.75;;
11187;SDS011;5650;52.700;7.306;2023-02-28T13:24:46;4.78;;;1.55;;
11187;SDS011;5650;52.700;7.306;2023-02-28T13:33:26;3.10;;;1.90;;
11187;SDS011;5650;52.700;7.306;2023-02-28T13:36:07;4.63;;;2.75;;
11187;SDS011;5650;52.700;7.306;2023-02-28T13:38:52;2.58;;;2.05;;
11187;SDS011;5650;52.700;7.306;2023-02-28T13:44:36;3.53;;;1.70;;
11187;SDS011;5650;52.700;7.306;2023-02-28T13:47:51;4.55;;;2.22;;
11187;SDS011;5650;52.700;7.306;2023-02-28T13:50:22;2.65;;;1.67;;
11187;SDS011;5650;52.700;7.306;2023-02-28T13:56:01;14.35;;;7.47;;
11187;SDS011;5650;52.700;7.306;2023-02-28T13:58:45;3.42;;;1.50;;
11187;SDS011;5650;52.700;7.306;2023-02-28T14:01:28;3.65;;;1.73;;
11187;SDS011;5650;52.700;7.306;2023-02-28T14:07:16;3.72;;;1.50;;
11187;SDS011;5650;52.700;7.306;2023-02-28T14:09:56;3.47;;;1.55;;
11187;SDS011;5650;52.700;7.306;2023-02-28T14:15:41;2.47;;;1.50;;
11187;SDS011;5650;52.700;7.306;2023-02-28T14:18:27;2.33;;;1.60;;
11187;SDS011;5650;52.700;7.306;2023-02-28T14:20:58;2.80;;;1.40;;
11187;SDS011;5650;52.700;7.306;2023-02-28T14:26:42;3.55;;;1.70;;
11187;SDS011;5650;52.700;7.306;2023-02-28T14:32:50;2.80;;;1.80;;
11187;SDS011;5650;52.700;7.306;2023-02-28T14:35:39;2.22;;;1.63;;
11187;SDS011;5650;52.700;7.306;2023-02-28T14:38:19;4.30;;;1.67;;
11187;SDS011;5650;52.700;7.306;2023-02-28T14:40:49;1.95;;;1.40;;
11187;SDS011;5650;52.700;7.306;2023-02-28T14:43:20;2.85;;;1.77;;
11187;SDS011;5650;52.700;7.306;2023-02-28T14:45:52;1.98;;;1.48;;
11187;SDS011;5650;52.700;7.306;2023-02-28T14:48:23;3.67;;;1.63;;
11187;SDS011;5650;52.700;7.306;2023-02-28T14:51:00;2.78;;;1.88;;
11187;SDS011;5650;52.700;7.306;2023-02-28T14:53:35;2.78;;;1.60;;
11187;SDS011;5650;52.700;7.306;2023-02-28T14:56:03;2.97;;;1.50;;
11187;SDS011;5650;52.700;7.306;2023-02-28T14:58:39;2.83;;;1.48;;
11187;SDS011;5650;52.700;7.306;2023-02-28T15:01:12;3.03;;;1.60;;
11187;SDS011;5650;52.700;7.306;2023-02-28T15:03:56;3.40;;;1.52;;
11187;SDS011;5650;52.700;7.306;2023-02-28T15:06:29;3.92;;;2.70;;
11187;SDS011;5650;52.700;7.306;2023-02-28T15:09:10;3.40;;;1.80;;
11187;SDS011;5650;52.700;7.306;2023-02-28T15:11:41;4.13;;;1.77;;
11187;SDS011;5650;52.700;7.306;2023-02-28T15:14:13;2.42;;;1.50;;
11187;SDS011;5650;52.700;7.306;2023-02-28T15:16:45;2.83;;;1.30;;
11187;SDS011;5650;52.700;7.306;2023-02-28T15:19:17;3.03;;;1.80;;
11187;SDS011;5650;52.700;7.306;2023-02-28T15:21:51;1.80;;;1.50;;
11187;SDS011;5650;52.700;7.306;2023-02-28T15:24:30;3.20;;;1.60;;
11187;SDS011;5650;52.700;7.306;2023-02-28T15:27:04;3.20;;;1.92;;
11187;SDS011;5650;52.700;7.306;2023-02-28T15:29:34;4.03;;;2.22;;
11187;SDS011;5650;52.700;7.306;2023-02-28T15:32:23;6.35;;;1.70;;
11187;SDS011;5650;52.700;7.306;2023-02-28T15:34:55;2.45;;;1.60;;
11187;SDS011;5650;52.700;7.306;2023-02-28T15:37:29;1.67;;;1.50;;
11187;SDS011;5650;52.700;7.306;2023-02-28T15:40:07;1.75;;;1.05;;
11187;SDS011;5650;52.700;7.306;2023-02-28T15:42:41;1.55;;;1.23;;
11187;SDS011;5650;52.700;7.306;2023-02-28T15:48:14;3.53;;;1.98;;
11187;SDS011;5650;52.700;7.306;2023-02-28T15:50:50;4.95;;;1.80;;
11187;SDS011;5650;52.700;7.306;2023-02-28T15:53:22;2.97;;;2.10;;
11187;SDS011;5650;52.700;7.306;2023-02-28T15:55:53;3.08;;;1.45;;
11187;SDS011;5650;52.700;7.306;2023-02-28T15:58:24;2.35;;;1.60;;
11187;SDS011;5650;52.700;7.306;2023-02-28T16:01:05;1.95;;;1.48;;
11187;SDS011;5650;52.700;7.306;2023-02-28T16:06:24;3.38;;;1.67;;
11187;SDS011;5650;52.700;7.306;2023-02-28T16:09:02;3.60;;;1.50;;
11187;SDS011;5650;52.700;7.306;2023-02-28T16:11:33;2.40;;;1.48;;
11187;SDS011;5650;52.700;7.306;2023-02-28T16:14:08;4.32;;;2.08;;
11187;SDS011;5650;52.700;7.306;2023-02-28T16:16:42;6.85;;;2.92;;
11187;SDS011;5650;52.700;7.306;2023-02-28T16:19:10;3.05;;;2.42;;
11187;SDS011;5650;52.700;7.306;2023-02-28T16:21:37;14.30;;;8.32;;
11187;SDS011;5650;52.700;7.306;2023-02-28T16:24:09;5.97;;;3.28;;
11187;SDS011;5650;52.700;7.306;2023-02-28T16:26:36;5.78;;;2.97;;
11187;SDS011;5650;52.700;7.306;2023-02-28T16:29:08;8.15;;;2.60;;
11187;SDS011;5650;52.700;7.306;2023-02-28T16:31:39;4.38;;;2.55;;
11187;SDS011;5650;52.700;7.306;2023-02-28T16:34:07;4.05;;;2.50;;